Time,TemperatureF,DewpointF,PressureIn,WindDirection,WindDirectionDegrees,WindSpeedMPH,WindSpeedGustMPH,Humidity,HourlyPrecipIn,Conditions,Clouds,dailyrainin,SoftwareType,DateUTC
2013-10-17 00:14:00,59.3,52.0,29.81,WNW,301,10.0,11.0,76,0.00,,,0.00,weatherlink.com 1.10,2013-10-17 04:14:00,
2013-10-17 00:29:00,59.5,52.0,29.81,WNW,291,1.0,11.0,76,0.00,,,0.00,weatherlink.com 1.10,2013-10-17 04:29:00,
2013-10-17 00:44:00,59.9,52.0,29.81,North,5,2.0,13.0,76,0.00,,,0.00,weatherlink.com 1.10,2013-10-17 04:44:00,
2013-10-17 00:59:00,59.7,52.0,29.81,South,182,0.0,9.0,76,0.00,,,0.00,weatherlink.com 1.10,2013-10-17 04:59:00,
2013-10-17 01:14:00,59.3,53.0,29.80,SSW,209,9.0,14.0,80,0.00,,,0.00,weatherlink.com 1.10,2013-10-17 05:14:00,
2013-10-17 01:29:00,60.5,54.0,29.80,SW,216,4.0,12.0,78,0.00,,,0.00,weatherlink.com 1.10,2013-10-17 05:29:00,
2013-10-17 01:44:00,60.8,53.0,29.81,East,84,1.0,14.0,75,0.00,,,0.00,weatherlink.com 1.10,2013-10-17 05:44:00,
2013-10-17 01:59:00,59.0,53.0,29.81,East,85,1.0,2.0,79,0.00,,,0.00,weatherlink.com 1.10,2013-10-17 05:59:00,
2013-10-17 02:14:00,58.6,52.0,29.81,NE,56,0.0,4.0,80,0.00,,,0.00,weatherlink.com 1.10,2013-10-17 06:14:00,
2013-10-17 02:29:00,59.0,54.0,29.81,WNW,292,4.0,7.0,83,0.00,,,0.00,weatherlink.com 1.10,2013-10-17 06:29:00,
2013-10-17 02:44:00,60.2,54.0,29.80,SW,232,3.0,10.0,81,0.00,,,0.00,weatherlink.com 1.10,2013-10-17 06:44:00,
2013-10-17 02:59:00,61.3,54.0,29.80,WSW,237,3.0,15.0,78,0.00,,,0.00,weatherlink.com 1.10,2013-10-17 06:59:00,
2013-10-17 03:15:00,61.2,55.0,29.79,SSW,213,3.0,10.0,79,0.00,,,0.00,weatherlink.com 1.10,2013-10-17 07:15:00,
2013-10-17 03:30:00,61.5,55.0,29.79,SSW,209,7.0,14.0,78,0.00,,,0.00,weatherlink.com 1.10,2013-10-17 07:30:00,
2013-10-17 03:45:00,61.6,55.0,29.78,South,186,4.0,11.0,78,0.00,,,0.00,weatherlink.com 1.10,2013-10-17 07:45:00,
2013-10-17 04:00:00,62.3,55.0,29.78,SSW,208,4.0,11.0,77,0.00,,,0.00,weatherlink.com 1.10,2013-10-17 08:00:00,
2013-10-17 04:15:00,61.9,55.0,29.78,SW,219,4.0,9.0,78,0.00,,,0.00,weatherlink.com 1.10,2013-10-17 08:15:00,
2013-10-17 04:30:00,61.7,56.0,29.78,SSE,158,2.0,10.0,80,0.00,,,0.00,weatherlink.com 1.10,2013-10-17 08:30:00,
2013-10-17 04:45:00,61.4,56.0,29.78,WSW,245,4.0,7.0,81,0.00,,,0.00,weatherlink.com 1.10,2013-10-17 08:45:00,
2013-10-17 05:00:00,61.2,56.0,29.79,South,169,2.0,7.0,83,0.00,,,0.00,weatherlink.com 1.10,2013-10-17 09:00:00,
2013-10-17 05:15:00,60.8,56.0,29.78,North,355,0.0,3.0,84,0.00,,,0.00,weatherlink.com 1.10,2013-10-17 09:15:00,
2013-10-17 05:30:00,60.5,56.0,29.78,North,11,0.0,3.0,86,0.00,,,0.00,weatherlink.com 1.10,2013-10-17 09:30:00,
2013-10-17 05:45:00,59.9,56.0,29.78,NNE,18,0.0,2.0,87,0.00,,,0.00,weatherlink.com 1.10,2013-10-17 09:45:00,
2013-10-17 06:00:00,59.6,56.0,29.79,NNE,18,0.0,2.0,88,0.00,,,0.00,weatherlink.com 1.10,2013-10-17 10:00:00,
2013-10-17 06:15:00,59.3,56.0,29.80,NNE,17,1.0,2.0,90,0.00,,,0.00,weatherlink.com 1.10,2013-10-17 10:15:00,
2013-10-17 06:30:00,56.6,54.0,29.82,NNE,26,5.0,13.0,89,0.00,,,0.00,weatherlink.com 1.10,2013-10-17 10:30:00,
2013-10-17 06:45:00,54.9,52.0,29.82,NNE,19,1.0,10.0,90,0.00,,,0.00,weatherlink.com 1.10,2013-10-17 10:45:00,
2013-10-17 07:00:00,54.5,52.0,29.83,NNW,334,1.0,4.0,91,0.00,,,0.00,weatherlink.com 1.10,2013-10-17 11:00:00,
2013-10-17 07:15:00,54.5,52.0,29.83,North,5,2.0,4.0,92,0.00,,,0.00,weatherlink.com 1.10,2013-10-17 11:15:00,
2013-10-17 07:30:00,54.5,52.0,29.83,North,5,1.0,2.0,91,0.00,,,0.00,weatherlink.com 1.10,2013-10-17 11:30:00,
2013-10-17 07:45:00,54.4,52.0,29.83,North,5,0.0,2.0,92,0.00,,,0.00,weatherlink.com 1.10,2013-10-17 11:45:00,
2013-10-17 08:00:00,54.8,53.0,29.83,North,5,0.0,0.0,92,0.00,,,0.00,weatherlink.com 1.10,2013-10-17 12:00:00,
2013-10-17 08:15:00,55.5,53.0,29.83,NNE,28,3.0,4.0,90,0.00,,,0.00,weatherlink.com 1.10,2013-10-17 12:15:00,
2013-10-17 08:30:00,56.3,53.0,29.83,ENE,59,0.0,2.0,88,0.00,,,0.00,weatherlink.com 1.10,2013-10-17 12:30:00,
2013-10-17 08:45:00,57.1,53.0,29.83,NW,308,2.0,2.0,85,0.00,,,0.00,weatherlink.com 1.10,2013-10-17 12:45:00,
2013-10-17 09:00:00,57.7,53.0,29.83,NNE,28,1.0,4.0,84,0.00,,,0.00,weatherlink.com 1.10,2013-10-17 13:00:00,
2013-10-17 09:15:00,58.9,51.0,29.83,NNW,342,1.0,4.0,74,0.00,,,0.00,weatherlink.com 1.10,2013-10-17 13:15:00,
2013-10-17 09:30:00,60.0,49.0,29.83,NNE,22,1.0,3.0,68,0.00,,,0.00,weatherlink.com 1.10,2013-10-17 13:30:00,
2013-10-17 09:45:00,60.7,49.0,29.83,NW,307,2.0,6.0,66,0.00,,,0.00,weatherlink.com 1.10,2013-10-17 13:45:00,
2013-10-17 10:00:00,60.9,49.0,29.83,NE,44,2.0,7.0,65,0.00,,,0.00,weatherlink.com 1.10,2013-10-17 14:00:00,
2013-10-17 10:15:00,61.2,50.0,29.82,NW,323,2.0,6.0,66,0.00,,,0.00,weatherlink.com 1.10,2013-10-17 14:15:00,
2013-10-17 10:30:00,62.0,49.0,29.82,WNW,292,0.0,5.0,63,0.00,,,0.00,weatherlink.com 1.10,2013-10-17 14:30:00,
2013-10-17 10:45:00,63.3,49.0,29.82,NW,311,1.0,5.0,60,0.00,,,0.00,weatherlink.com 1.10,2013-10-17 14:45:00,
2013-10-17 11:00:00,63.4,49.0,29.82,North,5,3.0,8.0,60,0.00,,,0.00,weatherlink.com 1.10,2013-10-17 15:00:00,
2013-10-17 11:15:00,64.0,49.0,29.81,West,260,4.0,9.0,58,0.00,,,0.00,weatherlink.com 1.10,2013-10-17 15:15:00,
2013-10-17 11:45:00,65.0,49.0,29.80,North,355,1.0,5.0,56,0.00,,,0.00,weatherlink.com 1.10,2013-10-17 15:45:00,
2013-10-17 12:00:00,65.3,47.0,29.80,NE,37,1.0,7.0,52,0.00,,,0.00,weatherlink.com 1.10,2013-10-17 16:00:00,
2013-10-17 12:15:00,65.7,46.0,29.80,North,9,10.0,12.0,49,0.00,,,0.00,weatherlink.com 1.10,2013-10-17 16:15:00,
2013-10-17 12:30:00,66.4,45.0,29.79,NW,326,6.0,9.0,46,0.00,,,0.00,weatherlink.com 1.10,2013-10-17 16:30:00,
2013-10-17 12:46:00,67.3,43.0,29.78,NNE,25,3.0,11.0,41,0.00,,,0.00,weatherlink.com 1.10,2013-10-17 16:46:00,
2013-10-17 13:01:00,68.2,43.0,29.77,WNW,299,1.0,9.0,40,0.00,,,0.00,weatherlink.com 1.10,2013-10-17 17:01:00,
2013-10-17 13:16:00,68.9,43.0,29.76,West,277,4.0,7.0,39,0.00,,,0.00,weatherlink.com 1.10,2013-10-17 17:16:00,
2013-10-17 13:31:00,69.5,42.0,29.76,NNW,336,1.0,9.0,37,0.00,,,0.00,weatherlink.com 1.10,2013-10-17 17:31:00,
2013-10-17 13:46:00,69.6,41.0,29.75,North,360,2.0,7.0,36,0.00,,,0.00,weatherlink.com 1.10,2013-10-17 17:46:00,
2013-10-17 14:01:00,70.3,40.0,29.75,NNE,32,5.0,13.0,33,0.00,,,0.00,weatherlink.com 1.10,2013-10-17 18:01:00,
2013-10-17 14:16:00,69.8,39.0,29.74,SE,141,2.0,10.0,33,0.00,,,0.00,weatherlink.com 1.10,2013-10-17 18:16:00,
2013-10-17 14:31:00,71.0,40.0,29.74,NW,314,5.0,8.0,32,0.00,,,0.00,weatherlink.com 1.10,2013-10-17 18:31:00,
2013-10-17 14:46:00,70.5,38.0,29.74,West,274,1.0,7.0,31,0.00,,,0.00,weatherlink.com 1.10,2013-10-17 18:46:00,
2013-10-17 15:01:00,71.3,41.0,29.73,NW,313,2.0,7.0,34,0.00,,,0.00,weatherlink.com 1.10,2013-10-17 19:01:00,
2013-10-17 15:16:00,71.6,40.0,29.73,WNW,299,4.0,7.0,32,0.00,,,0.00,weatherlink.com 1.10,2013-10-17 19:16:00,
2013-10-17 15:31:00,71.9,41.0,29.72,West,276,2.0,5.0,33,0.00,,,0.00,weatherlink.com 1.10,2013-10-17 19:31:00,
2013-10-17 15:46:00,72.2,42.0,29.72,WNW,290,1.0,5.0,34,0.00,,,0.00,weatherlink.com 1.10,2013-10-17 19:46:00,
2013-10-17 16:01:00,72.0,41.0,29.72,SE,142,2.0,4.0,33,0.00,,,0.00,weatherlink.com 1.10,2013-10-17 20:01:00,
2013-10-17 16:16:00,71.7,42.0,29.72,WSW,247,4.0,4.0,34,0.00,,,0.00,weatherlink.com 1.10,2013-10-17 20:16:00,
2013-10-17 16:46:00,69.3,42.0,29.71,West,262,1.0,2.0,37,0.00,,,0.00,weatherlink.com 1.10,2013-10-17 20:46:00,
2013-10-17 17:01:00,66.8,45.0,29.71,West,262,1.0,2.0,46,0.00,,,0.00,weatherlink.com 1.10,2013-10-17 21:01:00,
2013-10-17 17:31:00,64.7,45.0,29.70,SW,228,1.0,1.0,50,0.00,,,0.00,weatherlink.com 1.10,2013-10-17 21:31:00,
2013-10-17 17:46:00,63.7,46.0,29.70,SW,225,0.0,1.0,52,0.00,,,0.00,weatherlink.com 1.10,2013-10-17 21:46:00,
2013-10-17 18:01:00,62.7,47.0,29.69,South,180,0.0,2.0,56,0.00,,,0.00,weatherlink.com 1.10,2013-10-17 22:01:00,
2013-10-17 18:16:00,61.6,47.0,29.69,SSE,151,1.0,1.0,60,0.00,,,0.00,weatherlink.com 1.10,2013-10-17 22:16:00,
2013-10-17 18:31:00,60.7,48.0,29.69,SSE,157,0.0,2.0,64,0.00,,,0.00,weatherlink.com 1.10,2013-10-17 22:31:00,
2013-10-17 18:46:00,60.1,49.0,29.68,SSE,157,0.0,1.0,66,0.00,,,0.00,weatherlink.com 1.10,2013-10-17 22:46:00,
2013-10-17 19:01:00,59.9,50.0,29.68,SSE,157,0.0,2.0,69,0.00,,,0.00,weatherlink.com 1.10,2013-10-17 23:01:00,
2013-10-17 19:16:00,59.9,49.0,29.68,SSE,151,1.0,3.0,68,0.00,,,0.00,weatherlink.com 1.10,2013-10-17 23:16:00,
2013-10-17 19:31:00,60.2,50.0,29.66,ESE,109,0.0,3.0,68,0.00,,,0.00,weatherlink.com 1.10,2013-10-17 23:31:00,
2013-10-17 19:46:00,60.4,49.0,29.66,SW,229,0.0,3.0,67,0.00,,,0.00,weatherlink.com 1.10,2013-10-17 23:46:00,
2013-10-17 20:02:00,60.6,50.0,29.66,SE,128,1.0,5.0,68,0.00,,,0.00,weatherlink.com 1.10,2013-10-18 00:02:00,
2013-10-17 20:16:00,62.3,53.0,29.64,SE,125,2.0,5.0,71,0.00,,,0.00,weatherlink.com 1.10,2013-10-18 00:16:00,
2013-10-17 20:31:00,62.9,53.0,29.64,SE,129,0.0,7.0,70,0.00,,,0.00,weatherlink.com 1.10,2013-10-18 00:31:00,
2013-10-17 20:47:00,63.1,54.0,29.63,ENE,67,2.0,8.0,71,0.00,,,0.00,weatherlink.com 1.10,2013-10-18 00:47:00,
2013-10-17 21:02:00,62.9,55.0,29.62,SSW,199,2.0,8.0,75,0.00,,,0.00,weatherlink.com 1.10,2013-10-18 01:02:00,
2013-10-17 21:17:00,62.2,56.0,29.63,WSW,237,1.0,8.0,80,0.01,,,0.01,weatherlink.com 1.10,2013-10-18 01:17:00,
2013-10-17 21:32:00,62.0,56.0,29.62,SSE,151,3.0,10.0,82,0.01,,,0.01,weatherlink.com 1.10,2013-10-18 01:32:00,
2013-10-17 21:47:00,61.8,56.0,29.62,ESE,122,3.0,9.0,82,0.01,,,0.01,weatherlink.com 1.10,2013-10-18 01:47:00,
2013-10-17 22:02:00,61.5,57.0,29.60,South,173,2.0,8.0,84,0.00,,,0.01,weatherlink.com 1.10,2013-10-18 02:02:00,
2013-10-17 22:17:00,61.5,57.0,29.59,East,96,5.0,11.0,84,0.00,,,0.01,weatherlink.com 1.10,2013-10-18 02:17:00,
2013-10-17 22:32:00,62.0,57.0,29.59,SE,143,4.0,9.0,84,0.00,,,0.01,weatherlink.com 1.10,2013-10-18 02:32:00,
2013-10-17 22:47:00,61.3,57.0,29.58,South,175,4.0,7.0,87,0.03,,,0.04,weatherlink.com 1.10,2013-10-18 02:47:00,
2013-10-17 23:02:00,61.2,57.0,29.58,SSW,193,7.0,11.0,87,0.04,,,0.05,weatherlink.com 1.10,2013-10-18 03:02:00,
2013-10-17 23:17:00,61.4,58.0,29.57,South,188,2.0,14.0,87,0.05,,,0.06,weatherlink.com 1.10,2013-10-18 03:17:00,
2013-10-17 23:32:00,61.9,58.0,29.56,SSW,198,7.0,7.0,86,0.05,,,0.06,weatherlink.com 1.10,2013-10-18 03:32:00,
2013-10-17 23:47:00,61.6,58.0,29.55,SSE,163,2.0,8.0,88,0.04,,,0.08,weatherlink.com 1.10,2013-10-18 03:47:00,